Time;durP1;ratioP1;P1;durP2;ratioP2;P2;SDS_P1;SDS_P2;PMS_P1;PMS_P2;Temp;Humidity;BMP_temperature;BMP_pressure;BME280_temperature;BME280_humidity;BME280_pressure;Samples;Min_cycle;Max_cycle;Signal;HPM_P1;HPM_P2
2021/12/13 00:00:30;;;;;;;;;;;4.50;99.90;5.00;100717.00;;;;344530;28;82558;-88
2021/12/13 00:00:57;;;;;;;;;;;4.40;99.90;5.10;100714.00;;;;344115;28;89232;-89
2021/12/13 00:01:17;;;;;;;;;;;4.40;99.90;5.10;100720.00;;;;345988;28;83304;-89
2021/12/13 00:02:02;;;;;;;;;;;4.50;99.90;4.90;100717.00;;;;344055;28;89259;-89
2021/12/13 00:02:29;;;;;;;;;;;4.50;99.90;5.00;100717.00;;;;340537;28;83375;-89
2021/12/13 00:02:56;;;;;;;;;;;4.50;99.90;5.20;100720.00;;;;340144;28;90293;-88
2021/12/13 00:03:42;;;;;;;;;;;4.50;99.90;5.20;100712.00;;;;341707;28;83463;-89
2021/12/13 00:03:57;;;;;;;;;;;4.50;99.90;5.30;100720.00;;;;340075;28;88643;-87
2021/12/13 00:04:16;;;;;;;;;;;4.60;99.90;5.20;100713.00;;;;340976;28;82402;-89
2021/12/13 00:04:28;;;;;;;;;;;4.50;99.90;5.10;100713.00;;;;338890;28;87506;-89
2021/12/13 00:04:43;;;;;;;;;;;4.50;99.90;4.90;100712.00;;;;338686;28;83176;-89
2021/12/13 00:05:13;;;;;;;;;;;4.60;99.90;4.80;100719.00;;;;338735;28;87944;-89
2021/12/13 00:05:30;;;;;;;;;;;4.50;99.90;5.00;100716.00;;;;339258;28;83214;-89
2021/12/13 00:05:51;;;;;;;;;;;4.50;99.90;4.90;100720.00;;;;340081;28;88625;-88
2021/12/13 00:06:09;;;;;;;;;;;4.40;99.90;5.10;100713.00;;;;339386;28;83317;-89
2021/12/13 00:06:27;;;;;;;;;;;4.50;99.90;5.00;100711.00;;;;340259;28;88024;-89
2021/12/13 00:07:06;;;;;;;;;;;4.50;99.90;4.90;100726.00;;;;339466;28;83410;-89
2021/12/13 00:07:27;;;;;;;;;;;4.40;99.90;4.90;100724.00;;;;338849;28;88458;-89
2021/12/13 00:07:41;;;;;;;;;;;4.40;99.90;4.80;100714.00;;;;338050;28;82512;-88
2021/12/13 00:08:02;;;;;;;;;;;4.40;99.90;4.90;100719.00;;;;338830;28;91889;-89
2021/12/13 00:08:18;;;;;;;;;;;4.40;99.90;4.90;100713.00;;;;339520;28;83644;-89
2021/12/13 00:08:32;;;;;;;;;;;4.40;99.90;4.80;100713.00;;;;338922;28;91465;-89
2021/12/13 00:08:47;;;;;;;;;;;4.30;99.90;4.90;100715.00;;;;339140;28;82757;-89
2021/12/13 00:09:04;;;;;;;;;;;4.40;99.90;5.00;100718.00;;;;337534;28;93443;-89
2021/12/13 00:09:20;;;;;;;;;;;4.40;99.90;5.00;100714.00;;;;338935;28;84155;-89
2021/12/13 00:09:34;;;;;;;;;;;4.40;99.90;4.90;100722.00;;;;340091;28;89317;-89
2021/12/13 00:09:48;;;;;;;;;;;4.40;99.90;5.00;100714.00;;;;332519;29;83493;-89
2021/12/13 00:10:12;;;;;;;;;;;4.40;99.90;5.00;100716.00;;;;331040;29;90367;-89
2021/12/13 00:10:31;;;;;;;;;;;4.40;99.90;5.10;100719.00;;;;333713;28;83583;-89
2021/12/13 00:10:52;;;;;;;;;;;4.40;99.90;5.10;100711.00;;;;332134;29;88764;-89
2021/12/13 00:11:16;;;;;;;;;;;4.40;99.90;5.00;100716.00;;;;333889;29;83435;-89
2021/12/13 00:11:33;;;;;;;;;;;4.40;99.90;5.10;100716.00;;;;332256;29;88206;-89
2021/12/13 00:11:47;;;;;;;;;;;4.40;99.90;5.10;100728.00;;;;333906;28;83294;-89
2021/12/13 00:12:01;;;;;;;;;;;4.40;99.90;5.20;100718.00;;;;333288;29;89312;-89
2021/12/13 00:12:19;;;;;;;;;;;4.40;99.90;5.20;100726.00;;;;333782;29;83470;-89
2021/12/13 00:12:34;;;;;;;;;;;4.40;99.90;5.20;100709.00;;;;329751;29;87767;-89
2021/12/13 00:12:49;;;;;;;;;;;4.50;99.90;5.10;100724.00;;;;333870;28;83396;-89
2021/12/13 00:13:13;;;;;;;;;;;4.40;99.90;4.90;100715.00;;;;332975;29;88790;-88
2021/12/13 00:13:34;;;;;;;;;;;4.40;99.90;5.00;100718.00;;;;335174;29;83619;-89
2021/12/13 00:14:12;;;;;;;;;;;4.40;99.90;5.10;100729.00;;;;330941;29;89333;-89
2021/12/13 00:14:45;;;;;;;;;;;4.50;99.90;5.00;100720.00;;;;338140;28;82372;-89
2021/12/13 00:14:58;;;;;;;;;;;4.40;99.90;5.10;100732.00;;;;336284;28;87860;-89
2021/12/13 00:15:23;;;;;;;;;;;4.40;99.90;5.10;100723.00;;;;338843;28;82265;-89
2021/12/13 00:15:38;;;;;;;;;;;4.40;99.90;5.10;100730.00;;;;337352;28;92472;-89
2021/12/13 00:15:56;;;;;;;;;;;4.40;99.90;5.20;100732.00;;;;335077;28;83286;-89
2021/12/13 00:16:09;;;;;;;;;;;4.40;99.90;5.10;100721.00;;;;333286;29;89421;-89
2021/12/13 00:16:26;;;;;;;;;;;4.50;99.90;5.20;100719.00;;;;334623;28;83717;-89
2021/12/13 00:16:41;;;;;;;;;;;4.50;99.90;5.20;100728.00;;;;340246;28;88450;-89
2021/12/13 00:17:05;;;;;;;;;;;4.50;99.90;5.10;100721.00;;;;336778;28;82441;-89
2021/12/13 00:17:23;;;;;;;;;;;4.50;99.90;5.10;100720.00;;;;333503;29;88927;-89
2021/12/13 00:17:46;;;;;;;;;;;4.50;99.90;4.90;100725.00;;;;333828;29;83400;-89
2021/12/13 00:18:00;;;;;;;;;;;4.50;99.90;5.00;100725.00;;;;333188;29;91508;-89
2021/12/13 00:18:17;;;;;;;;;;;4.50;99.90;5.10;100725.00;;;;332662;29;82164;-89
2021/12/13 00:18:31;;;;;;;;;;;4.50;99.90;5.00;100722.00;;;;332114;29;90139;-89
2021/12/13 00:18:45;;;;;;;;;;;4.50;99.90;5.10;100731.00;;;;335069;29;83358;-89
2021/12/13 00:19:03;;;;;;;;;;;4.50;99.90;5.10;100725.00;;;;333172;29;89057;-89
2021/12/13 00:19:18;;;;;;;;;;;4.50;99.90;5.10;100725.00;;;;334524;28;83390;-89
2021/12/13 00:19:40;;;;;;;;;;;4.50;99.90;5.20;100734.00;;;;331952;29;91549;-89
2021/12/13 00:20:14;;;;;;;;;;;4.50;99.90;5.20;100729.00;;;;331900;28;82361;-89
2021/12/13 00:20:40;;;;;;;;;;;4.50;99.90;5.20;100726.00;;;;333118;29;88260;-89
2021/12/13 00:20:57;;;;;;;;;;;4.50;99.90;5.10;100718.00;;;;332659;29;83158;-89
2021/12/13 00:21:20;;;;;;;;;;;4.50;99.90;5.20;100720.00;;;;334709;29;89278;-89
2021/12/13 00:21:44;;;;;;;;;;;4.50;99.90;5.20;100720.00;;;;336057;28;82574;-89
2021/12/13 00:21:58;;;;;;;;;;;4.50;99.90;5.20;100721.00;;;;331661;29;88840;-89
2021/12/13 00:22:22;;;;;;;;;;;4.50;99.90;5.10;100718.00;;;;331302;29;82450;-89
2021/12/13 00:22:39;;;;;;;;;;;4.50;99.90;5.00;100726.00;;;;328090;29;88577;-89
2021/12/13 00:22:51;;;;;;;;;;;4.50;99.90;5.10;100714.00;;;;333793;28;83656;-89
2021/12/13 00:23:25;;;;;;;;;;;4.50;99.90;5.20;100717.00;;;;340211;28;87784;-89
2021/12/13 00:23:49;;;;;;;;;;;4.50;99.90;5.10;100722.00;;;;339170;28;82532;-89
2021/12/13 00:24:03;;;;;;;;;;;4.50;99.90;5.10;100727.00;;;;338665;28;89626;-89
2021/12/13 00:24:25;;;;;;;;;;;4.50;99.90;5.20;100717.00;;;;340640;28;83469;-89
2021/12/13 00:24:39;;;;;;;;;;;4.50;99.90;5.10;100724.00;;;;339843;28;88317;-89
2021/12/13 00:24:51;;;;;;;;;;;4.50;99.90;5.10;100714.00;;;;335535;28;83459;-89
2021/12/13 00:25:08;;;;;;;;;;;4.50;99.90;5.10;100718.00;;;;332111;28;92645;-89
2021/12/13 00:25:23;;;;;;;;;;;4.50;99.90;5.10;100721.00;;;;332490;29;83252;-89
2021/12/13 00:25:35;;;;;;;;;;;4.50;99.90;5.10;100717.00;;;;332260;29;89317;-89
2021/12/13 00:25:48;;;;;;;;;;;4.50;99.90;5.10;100713.00;;;;330976;28;83460;-89
2021/12/13 00:26:02;;;;;;;;;;;4.50;99.90;5.10;100713.00;;;;337046;28;91918;-89
2021/12/13 00:26:27;;;;;;;;;;;4.50;99.90;5.00;100711.00;;;;331311;29;83487;-89
2021/12/13 00:26:43;;;;;;;;;;;4.50;99.90;4.90;100715.00;;;;332038;28;91968;-89
2021/12/13 00:27:22;;;;;;;;;;;4.40;99.90;5.00;100715.00;;;;333264;28;83561;-89
2021/12/13 00:27:46;;;;;;;;;;;4.40;99.90;4.90;100713.00;;;;330885;29;89489;-88
2021/12/13 00:28:07;;;;;;;;;;;4.40;99.90;5.00;100714.00;;;;332174;28;83575;-88
2021/12/13 00:28:19;;;;;;;;;;;4.40;99.90;4.90;100700.00;;;;334440;29;91614;-89
2021/12/13 00:28:36;;;;;;;;;;;4.40;99.90;5.00;100711.00;;;;332257;29;82593;-89
2021/12/13 00:28:48;;;;;;;;;;;4.40;99.90;5.00;100713.00;;;;332100;28;91887;-89
2021/12/13 00:29:11;;;;;;;;;;;4.40;99.90;4.90;100705.00;;;;333964;28;82523;-88
2021/12/13 00:29:25;;;;;;;;;;;4.40;99.90;4.80;100716.00;;;;333179;29;86604;-89
2021/12/13 00:29:54;;;;;;;;;;;4.40;99.90;4.70;100711.00;;;;332654;29;82540;-89
2021/12/13 00:30:28;;;;;;;;;;;4.40;99.90;4.80;100709.00;;;;330848;29;88243;-89
2021/12/13 00:31:15;;;;;;;;;;;4.30;99.90;5.00;100716.00;;;;331427;29;83418;-89
2021/12/13 00:31:44;;;;;;;;;;;4.30;99.90;4.70;100710.00;;;;338390;28;88664;-89
2021/12/13 00:32:19;;;;;;;;;;;4.40;99.90;4.80;100711.00;;;;341800;28;83706;-89
2021/12/13 00:32:39;;;;;;;;;;;4.30;99.90;4.90;100714.00;;;;338631;28;88871;-89
2021/12/13 00:33:14;;;;;;;;;;;4.40;99.90;4.70;100701.00;;;;339211;28;83253;-89
2021/12/13 00:33:41;;;;;;;;;;;4.30;99.90;4.80;100709.00;;;;337527;28;87861;-89
2021/12/13 00:34:00;;;;;;;;;;;4.30;99.90;5.00;100708.00;;;;339449;28;82662;-89
2021/12/13 00:34:33;;;;;;;;;;;4.30;99.90;5.00;100707.00;;;;337655;28;89725;-88
2021/12/13 00:34:50;;;;;;;;;;;4.30;99.90;4.90;100711.00;;;;339445;28;82584;-89
2021/12/13 00:35:06;;;;;;;;;;;4.40;99.90;5.00;100708.00;;;;340354;28;88344;-89
2021/12/13 00:35:20;;;;;;;;;;;4.30;99.90;5.00;100712.00;;;;340700;28;82406;-89
2021/12/13 00:36:13;;;;;;;;;;;4.30;99.90;4.80;100702.00;;;;340043;28;91526;-89
2021/12/13 00:37:04;;;;;;;;;;;4.30;99.90;5.00;100708.00;;;;339040;28;82644;-89
2021/12/13 00:37:48;;;;;;;;;;;4.30;99.90;5.00;100719.00;;;;334704;28;92530;-89
2021/12/13 00:38:02;;;;;;;;;;;4.40;99.90;4.70;100707.00;;;;334055;29;83542;-89
2021/12/13 00:38:13;;;;;;;;;;;4.30;99.90;4.70;100709.00;;;;333615;29;89125;-89
2021/12/13 00:38:24;;;;;;;;;;;4.30;99.90;4.80;100702.00;;;;335160;29;83754;-89
2021/12/13 00:38:39;;;;;;;;;;;4.30;99.90;4.70;100702.00;;;;334914;29;88349;-89
2021/12/13 00:38:53;;;;;;;;;;;4.30;99.90;4.70;100709.00;;;;332599;29;83436;-89
2021/12/13 00:39:13;;;;;;;;;;;4.30;99.90;4.80;100704.00;;;;332257;29;90037;-89
2021/12/13 00:39:51;;;;;;;;;;;4.30;99.90;4.80;100706.00;;;;332768;29;83404;-89
2021/12/13 00:40:17;;;;;;;;;;;4.30;99.90;4.90;100711.00;;;;330579;29;89441;-89
2021/12/13 00:40:33;;;;;;;;;;;4.30;99.90;5.00;100713.00;;;;333976;29;83342;-89
2021/12/13 00:41:04;;;;;;;;;;;4.30;99.90;4.90;100714.00;;;;333531;29;92200;-88
2021/12/13 00:41:29;;;;;;;;;;;4.30;99.90;4.90;100714.00;;;;350929;27;75966;-89
2021/12/13 00:41:42;;;;;;;;;;;4.30;99.90;4.90;100711.00;;;;349768;27;82510;-89
2021/12/13 00:41:54;;;;;;;;;;;4.20;99.90;4.80;100703.00;;;;348320;27;83680;-89
2021/12/13 00:42:06;;;;;;;;;;;4.20;99.90;4.90;100712.00;;;;345674;28;82570;-88
2021/12/13 00:42:18;;;;;;;;;;;4.30;99.90;4.90;100711.00;;;;345851;28;84764;-89
2021/12/13 00:42:59;;;;;;;;;;;4.30;99.90;5.00;100715.00;;;;347289;28;82353;-89
2021/12/13 00:43:48;;;;;;;;;;;4.30;99.90;5.00;100718.00;;;;347186;28;82441;-89
2021/12/13 00:44:10;;;;;;;;;;;4.30;99.90;4.90;100715.00;;;;344381;28;82614;-88
2021/12/13 00:44:27;;;;;;;;;;;4.30;99.90;4.80;100704.00;;;;342941;28;84367;-89
2021/12/13 00:44:47;;;;;;;;;;;4.30;99.90;4.90;100712.00;;;;341792;28;82536;-90
2021/12/13 00:45:00;;;;;;;;;;;4.30;99.90;4.90;100708.00;;;;340131;28;87311;-89
2021/12/13 00:45:13;;;;;;;;;;;4.30;99.90;5.00;100706.00;;;;341746;28;82309;-88
2021/12/13 00:45:28;;;;;;;;;;;4.30;99.90;4.90;100707.00;;;;339116;28;82452;-89
2021/12/13 00:45:53;;;;;;;;;;;4.30;99.90;5.00;100704.00;;;;340213;28;83501;-88
2021/12/13 00:46:07;;;;;;;;;;;4.30;99.90;5.00;100708.00;;;;340196;28;86989;-90
2021/12/13 00:46:19;;;;;;;;;;;4.30;99.90;5.00;100699.00;;;;340093;28;83500;-88
2021/12/13 00:46:31;;;;;;;;;;;4.30;99.90;5.00;100703.00;;;;340241;28;86429;-89
2021/12/13 00:46:43;;;;;;;;;;;4.30;99.90;4.90;100699.00;;;;337749;28;83369;-87
2021/12/13 00:46:58;;;;;;;;;;;4.30;99.90;5.00;100708.00;;;;341808;28;84308;-89
2021/12/13 00:47:15;;;;;;;;;;;4.30;99.90;4.90;100703.00;;;;340407;28;83610;-89
2021/12/13 00:47:29;;;;;;;;;;;4.30;99.90;5.00;100701.00;;;;337429;28;85879;-89
2021/12/13 00:47:42;;;;;;;;;;;4.30;99.90;5.00;100698.00;;;;340368;28;83358;-88
2021/12/13 00:47:53;;;;;;;;;;;4.30;99.90;4.90;100698.00;;;;342891;28;86494;-88
2021/12/13 00:48:06;;;;;;;;;;;4.30;99.90;4.90;100698.00;;;;340510;28;83168;-89
2021/12/13 00:48:18;;;;;;;;;;;4.40;99.90;5.00;100698.00;;;;338958;28;85471;-89
2021/12/13 00:48:32;;;;;;;;;;;4.30;99.90;5.00;100701.00;;;;341402;28;84650;-89
2021/12/13 00:48:46;;;;;;;;;;;4.30;99.90;4.90;100695.00;;;;338992;28;86048;-88
2021/12/13 00:49:00;;;;;;;;;;;4.40;99.90;4.80;100698.00;;;;338778;28;83725;-89
2021/12/13 00:49:12;;;;;;;;;;;4.30;99.90;4.90;100696.00;;;;340397;28;85379;-89
2021/12/13 00:49:27;;;;;;;;;;;4.30;99.90;4.90;100695.00;;;;340214;28;83344;-88
2021/12/13 00:49:40;;;;;;;;;;;4.30;99.90;5.00;100693.00;;;;337611;28;87307;-89
2021/12/13 00:49:59;;;;;;;;;;;4.40;99.90;5.00;100696.00;;;;339051;28;83467;-89
2021/12/13 00:50:16;;;;;;;;;;;4.30;99.90;4.90;100698.00;;;;338931;28;86369;-89
2021/12/13 00:50:49;;;;;;;;;;;4.40;99.90;4.80;100694.00;;;;338982;28;82652;-89
2021/12/13 00:51:04;;;;;;;;;;;4.30;99.90;4.80;100695.00;;;;339115;28;85243;-88
2021/12/13 00:51:22;;;;;;;;;;;4.40;99.90;4.90;100692.00;;;;341772;28;83494;-89
2021/12/13 00:51:46;;;;;;;;;;;4.40;99.90;4.80;100698.00;;;;339243;28;84335;-89
2021/12/13 00:51:58;;;;;;;;;;;4.30;99.90;4.70;100701.00;;;;339477;28;83408;-90
2021/12/13 00:52:14;;;;;;;;;;;4.30;99.90;4.60;100696.00;;;;339169;28;85197;-90
2021/12/13 00:52:26;;;;;;;;;;;4.30;99.90;4.60;100703.00;;;;340524;28;82249;-89
2021/12/13 00:52:38;;;;;;;;;;;4.30;99.90;4.60;100696.00;;;;341926;28;82435;-89
2021/12/13 00:52:51;;;;;;;;;;;4.30;99.90;4.70;100685.00;;;;340679;28;83401;-89
2021/12/13 00:53:03;;;;;;;;;;;4.30;99.90;4.80;100687.00;;;;340500;28;85348;-89
2021/12/13 00:53:16;;;;;;;;;;;4.30;99.90;4.90;100696.00;;;;339209;28;82220;-89
2021/12/13 00:53:33;;;;;;;;;;;4.30;99.90;4.90;100697.00;;;;341523;28;83146;-89
2021/12/13 00:53:49;;;;;;;;;;;4.30;99.90;5.00;100688.00;;;;339098;28;82482;-89
2021/12/13 00:54:10;;;;;;;;;;;4.30;99.90;5.00;100702.00;;;;340673;28;84786;-89
2021/12/13 00:54:29;;;;;;;;;;;4.30;99.90;5.10;100697.00;;;;340638;28;83506;-89
2021/12/13 00:54:42;;;;;;;;;;;4.30;99.90;4.90;100700.00;;;;340278;28;85952;-89
2021/12/13 00:54:56;;;;;;;;;;;4.30;99.90;4.80;100699.00;;;;340562;28;83523;-89
2021/12/13 00:55:13;;;;;;;;;;;4.30;99.90;4.80;100692.00;;;;340277;28;87237;-89
2021/12/13 00:55:27;;;;;;;;;;;4.30;99.90;4.90;100701.00;;;;339179;28;83251;-89
2021/12/13 00:55:39;;;;;;;;;;;4.30;99.90;5.00;100704.00;;;;337656;28;83772;-87
2021/12/13 00:55:51;;;;;;;;;;;4.40;99.90;5.00;100692.00;;;;340389;28;83406;-88
2021/12/13 00:57:01;;;;;;;;;;;4.30;99.90;5.00;100700.00;;;;339009;28;83900;-89
2021/12/13 00:57:36;;;;;;;;;;;4.30;99.90;4.90;100697.00;;;;337834;28;83575;-88
2021/12/13 00:58:09;;;;;;;;;;;4.40;99.90;4.90;100699.00;;;;336404;28;83868;-89
2021/12/13 00:58:22;;;;;;;;;;;4.40;99.90;5.10;100698.00;;;;340345;28;83530;-88
2021/12/13 00:58:36;;;;;;;;;;;4.40;99.90;5.00;100695.00;;;;336551;28;86892;-89
2021/12/13 00:58:48;;;;;;;;;;;4.40;99.90;5.10;100696.00;;;;337733;28;83425;-90
2021/12/13 00:58:59;;;;;;;;;;;4.40;99.90;5.10;100699.00;;;;340510;28;86762;-89
2021/12/13 00:59:18;;;;;;;;;;;4.40;99.90;5.10;100699.00;;;;336779;28;82329;-89
2021/12/13 00:59:39;;;;;;;;;;;4.40;99.90;5.10;100689.00;;;;337833;28;82909;-91
2021/12/13 00:59:57;;;;;;;;;;;4.40;99.90;5.10;100686.00;;;;337754;28;83237;-92
2021/12/13 01:00:26;;;;;;;;;;;4.50;99.90;5.10;100693.00;;;;336268;28;87420;-92
2021/12/13 01:00:58;;;;;;;;;;;4.50;99.90;5.20;100698.00;;;;339139;28;83441;-92
2021/12/13 01:01:10;;;;;;;;;;;4.50;99.90;5.20;100691.00;;;;340193;28;87518;-91
2021/12/13 01:01:23;;;;;;;;;;;4.50;99.90;5.30;100691.00;;;;340536;28;83225;-91
2021/12/13 01:01:35;;;;;;;;;;;4.50;99.90;5.30;100696.00;;;;337608;28;85481;-92
2021/12/13 01:02:06;;;;;;;;;;;4.50;99.90;5.30;100695.00;;;;337745;28;83462;-91
2021/12/13 01:02:29;;;;;;;;;;;4.50;99.90;5.20;100697.00;;;;337783;28;83954;-91
2021/12/13 01:02:47;;;;;;;;;;;4.60;99.90;5.10;100697.00;;;;337769;28;83460;-92
2021/12/13 01:03:07;;;;;;;;;;;4.50;99.90;5.10;100692.00;;;;337722;28;83792;-91
2021/12/13 01:03:21;;;;;;;;;;;4.60;99.90;5.10;100694.00;;;;337547;28;82597;-92
2021/12/13 01:03:38;;;;;;;;;;;4.50;99.90;5.20;100699.00;;;;338874;28;85209;-92
2021/12/13 01:03:49;;;;;;;;;;;4.60;99.90;5.20;100693.00;;;;337508;28;83592;-92
2021/12/13 01:04:05;;;;;;;;;;;4.50;99.90;5.20;100697.00;;;;337708;28;83758;-91
2021/12/13 01:04:16;;;;;;;;;;;4.50;99.90;5.20;100700.00;;;;337874;28;83308;-91
2021/12/13 01:05:02;;;;;;;;;;;4.60;99.90;5.20;100696.00;;;;337694;28;84099;-92
2021/12/13 01:05:44;;;;;;;;;;;4.60;99.90;5.00;100704.00;;;;338885;28;83566;-91
2021/12/13 01:06:10;;;;;;;;;;;4.60;99.90;4.80;100706.00;;;;337751;28;85085;-91
2021/12/13 01:06:43;;;;;;;;;;;4.50;99.90;5.00;100703.00;;;;340266;28;82437;-91
2021/12/13 01:07:34;;;;;;;;;;;4.50;99.90;4.60;100698.00;;;;339872;28;83293;-91
2021/12/13 01:08:14;;;;;;;;;;;4.50;99.90;4.50;100703.00;;;;340169;28;83683;-91
2021/12/13 01:08:37;;;;;;;;;;;4.40;99.90;4.70;100703.00;;;;337638;28;84927;-91
2021/12/13 01:09:17;;;;;;;;;;;4.30;99.90;4.70;100708.00;;;;337771;28;83143;-91
2021/12/13 01:10:05;;;;;;;;;;;4.30;99.90;4.90;100705.00;;;;340119;28;86615;-91
2021/12/13 01:10:39;;;;;;;;;;;4.30;99.90;5.00;100704.00;;;;338993;28;83798;-91
2021/12/13 01:10:54;;;;;;;;;;;4.30;99.90;5.00;100703.00;;;;336566;28;84825;-91
2021/12/13 01:11:38;;;;;;;;;;;4.30;99.90;5.00;100701.00;;;;337531;28;83725;-91
2021/12/13 01:11:58;;;;;;;;;;;4.30;99.90;5.00;100707.00;;;;337447;28;85057;-91
2021/12/13 01:12:16;;;;;;;;;;;4.30;99.90;4.90;100705.00;;;;339037;28;83367;-91
2021/12/13 01:12:28;;;;;;;;;;;4.40;99.90;4.90;100697.00;;;;338892;28;85004;-91
2021/12/13 01:12:40;;;;;;;;;;;4.30;99.90;4.90;100705.00;;;;339095;28;83303;-91
2021/12/13 01:12:52;;;;;;;;;;;4.30;99.90;4.90;100697.00;;;;337523;28;87138;-91
2021/12/13 01:13:07;;;;;;;;;;;4.40;99.90;4.80;100700.00;;;;340364;28;83237;-91
2021/12/13 01:13:30;;;;;;;;;;;4.30;99.90;4.90;100707.00;;;;338984;28;84493;-91
2021/12/13 01:13:51;;;;;;;;;;;4.30;99.90;4.70;100701.00;;;;338840;28;83596;-92
2021/12/13 01:14:13;;;;;;;;;;;4.40;99.90;4.50;100707.00;;;;340384;28;85365;-91
2021/12/13 01:14:30;;;;;;;;;;;4.30;99.90;4.60;100700.00;;;;340145;28;83722;-91
2021/12/13 01:14:54;;;;;;;;;;;4.30;99.90;4.80;100699.00;;;;340202;28;85650;-91
2021/12/13 01:15:10;;;;;;;;;;;4.30;99.90;4.90;100707.00;;;;338984;28;83292;-91
2021/12/13 01:15:48;;;;;;;;;;;4.30;99.90;5.00;100704.00;;;;338916;28;85533;-91
2021/12/13 01:16:23;;;;;;;;;;;4.30;99.90;5.00;100704.00;;;;335037;29;82699;-91
2021/12/13 01:17:42;;;;;;;;;;;4.30;99.90;4.70;100698.00;;;;336494;28;83162;-91
2021/12/13 01:18:02;;;;;;;;;;;4.20;99.90;4.80;100701.00;;;;337409;28;86163;-91
2021/12/13 01:18:56;;;;;;;;;;;4.30;99.90;4.80;100702.00;;;;336437;29;83231;-91
2021/12/13 01:19:23;;;;;;;;;;;4.30;99.90;4.90;100706.00;;;;334712;29;86915;-92
2021/12/13 01:20:16;;;;;;;;;;;4.30;99.90;4.90;100699.00;;;;335232;29;85960;-92
2021/12/13 01:20:43;;;;;;;;;;;4.30;99.90;5.00;100707.00;;;;337644;28;83412;-92
2021/12/13 01:21:30;;;;;;;;;;;4.30;99.90;5.00;100706.00;;;;336217;28;85618;-91
2021/12/13 01:23:01;;;;;;;;;;;4.30;99.90;4.80;100710.00;;;;331115;29;84513;-90
2021/12/13 01:23:05;;;;;;;;;;;4.30;99.90;4.90;100705.00;;;;334936;29;83499;-91
2021/12/13 01:23:17;;;;;;;;;;;4.30;99.90;4.90;100694.00;;;;336935;28;83527;-91
2021/12/13 01:23:45;;;;;;;;;;;4.30;99.90;5.00;100694.00;;;;340285;28;85317;-91
2021/12/13 01:24:05;;;;;;;;;;;4.30;99.90;4.80;100689.00;;;;336476;28;82364;-90
2021/12/13 01:24:30;;;;;;;;;;;4.30;99.90;4.80;100703.00;;;;336144;28;87887;-92
2021/12/13 01:25:48;;;;;;;;;;;4.30;99.90;4.70;100692.00;;;;338978;28;85871;-92
2021/12/13 01:26:02;;;;;;;;;;;4.30;99.90;4.60;100703.00;;;;337754;28;83367;-91
2021/12/13 01:26:28;;;;;;;;;;;4.20;99.90;4.60;100694.00;;;;337691;28;83702;-91
2021/12/13 01:26:43;;;;;;;;;;;4.20;99.90;4.80;100696.00;;;;339081;28;83311;-91
2021/12/13 01:26:55;;;;;;;;;;;4.20;99.90;4.80;100703.00;;;;338907;28;83720;-92
2021/12/13 01:27:07;;;;;;;;;;;4.20;99.90;4.80;100690.00;;;;336390;28;83276;-91
2021/12/13 01:27:37;;;;;;;;;;;4.20;99.90;4.80;100698.00;;;;336237;28;83968;-91
2021/12/13 01:28:00;;;;;;;;;;;4.20;99.90;4.70;100695.00;;;;336327;28;82661;-92
2021/12/13 01:28:32;;;;;;;;;;;4.20;99.90;4.50;100708.00;;;;336268;28;86887;-92
2021/12/13 01:28:52;;;;;;;;;;;4.20;99.90;4.80;100704.00;;;;335202;29;83362;-92
2021/12/13 01:29:09;;;;;;;;;;;4.10;99.90;4.80;100701.00;;;;336234;29;84846;-91
2021/12/13 01:29:23;;;;;;;;;;;4.20;99.90;4.90;100692.00;;;;336503;28;83233;-91
2021/12/13 01:29:35;;;;;;;;;;;4.20;99.90;4.90;100705.00;;;;337400;28;85148;-90
2021/12/13 01:29:50;;;;;;;;;;;4.20;99.90;4.90;100706.00;;;;336627;28;82511;-91
2021/12/13 01:30:07;;;;;;;;;;;4.20;99.90;4.70;100699.00;;;;337654;28;84807;-91
2021/12/13 01:30:33;;;;;;;;;;;4.20;99.90;4.80;100686.00;;;;336367;28;82444;-91
2021/12/13 01:30:50;;;;;;;;;;;4.20;99.90;4.80;100701.00;;;;339035;28;85236;-92
2021/12/13 01:31:19;;;;;;;;;;;4.20;99.90;4.60;100706.00;;;;336338;28;83336;-91
2021/12/13 01:31:34;;;;;;;;;;;4.20;99.90;4.60;100703.00;;;;338662;28;87624;-91
2021/12/13 01:31:53;;;;;;;;;;;4.20;99.90;4.60;100700.00;;;;340200;28;83447;-92
2021/12/13 01:32:07;;;;;;;;;;;4.20;99.90;4.70;100700.00;;;;340269;28;84241;-91
2021/12/13 01:32:19;;;;;;;;;;;4.10;99.90;4.80;100697.00;;;;337719;28;82426;-89
2021/12/13 01:32:39;;;;;;;;;;;4.20;99.90;4.80;100708.00;;;;337324;28;85507;-91
2021/12/13 01:32:53;;;;;;;;;;;4.20;99.90;4.70;100708.00;;;;338954;28;82360;-92
2021/12/13 01:33:06;;;;;;;;;;;4.10;99.90;4.80;100705.00;;;;338783;28;85065;-92
2021/12/13 01:33:18;;;;;;;;;;;4.10;99.90;4.60;100705.00;;;;337724;28;83191;-91
2021/12/13 01:33:30;;;;;;;;;;;4.10;99.90;4.50;100715.00;;;;338889;28;85270;-92
2021/12/13 01:33:45;;;;;;;;;;;4.10;99.90;4.60;100705.00;;;;339095;28;83224;-90
2021/12/13 01:33:58;;;;;;;;;;;4.10;99.90;4.70;100712.00;;;;338487;28;91264;-91
2021/12/13 01:34:10;;;;;;;;;;;4.10;99.90;4.70;100712.00;;;;338910;28;83231;-91
2021/12/13 01:34:23;;;;;;;;;;;4.10;99.90;4.50;100712.00;;;;341352;28;86676;-91
2021/12/13 01:34:36;;;;;;;;;;;4.10;99.90;4.60;100708.00;;;;339092;28;82309;-91
2021/12/13 01:34:47;;;;;;;;;;;4.10;99.90;4.70;100698.00;;;;337388;28;87341;-91
2021/12/13 01:34:59;;;;;;;;;;;4.10;99.90;4.80;100707.00;;;;339015;28;82433;-91
2021/12/13 01:35:25;;;;;;;;;;;4.10;99.90;4.80;100721.00;;;;338700;28;86857;-92
2021/12/13 01:35:39;;;;;;;;;;;4.10;99.90;4.80;100699.00;;;;337562;28;83560;-91
2021/12/13 01:35:53;;;;;;;;;;;4.10;99.90;4.80;100700.00;;;;337414;28;85573;-91
2021/12/13 01:36:06;;;;;;;;;;;4.10;99.90;4.90;100705.00;;;;339074;28;83410;-91
2021/12/13 01:36:24;;;;;;;;;;;4.20;99.90;4.80;100704.00;;;;341272;28;83917;-91
2021/12/13 01:36:48;;;;;;;;;;;4.20;99.90;4.90;100712.00;;;;339989;28;82497;-92
2021/12/13 01:37:21;;;;;;;;;;;4.20;99.90;4.80;100717.00;;;;337602;28;82449;-92
2021/12/13 01:37:34;;;;;;;;;;;4.20;99.90;4.80;100697.00;;;;339012;28;83924;-91
2021/12/13 01:37:51;;;;;;;;;;;4.20;99.90;4.90;100707.00;;;;340202;28;82600;-91
2021/12/13 01:38:11;;;;;;;;;;;4.20;99.90;4.70;100700.00;;;;340386;28;83768;-91
2021/12/13 01:38:33;;;;;;;;;;;4.20;99.90;4.70;100702.00;;;;339121;28;83351;-91
2021/12/13 01:38:50;;;;;;;;;;;4.20;99.90;4.60;100704.00;;;;338950;28;84797;-91
2021/12/13 01:39:08;;;;;;;;;;;4.10;99.90;4.50;100711.00;;;;341446;28;83408;-91
2021/12/13 01:39:22;;;;;;;;;;;4.10;99.90;4.70;100697.00;;;;340172;28;87782;-92
2021/12/13 01:39:34;;;;;;;;;;;4.10;99.90;4.70;100701.00;;;;339259;28;82318;-91
2021/12/13 01:39:49;;;;;;;;;;;4.10;99.90;4.60;100706.00;;;;340285;28;85217;-92
2021/12/13 01:40:07;;;;;;;;;;;4.10;99.90;4.60;100702.00;;;;341574;28;82475;-91
2021/12/13 01:40:25;;;;;;;;;;;4.10;99.90;4.70;100699.00;;;;340217;28;85201;-90
2021/12/13 01:40:37;;;;;;;;;;;4.10;99.90;4.80;100699.00;;;;343153;28;82462;-91
2021/12/13 01:40:52;;;;;;;;;;;4.10;99.90;4.70;100707.00;;;;340274;28;83666;-91
2021/12/13 01:41:40;;;;;;;;;;;4.10;99.90;4.70;100696.00;;;;340455;28;83503;-91
2021/12/13 01:42:14;;;;;;;;;;;4.10;99.90;4.90;100708.00;;;;338904;28;84992;-91
2021/12/13 01:42:29;;;;;;;;;;;4.10;99.90;4.70;100699.00;;;;340123;28;82373;-92
2021/12/13 01:42:40;;;;;;;;;;;4.10;99.90;4.80;100702.00;;;;336309;28;84339;-91
2021/12/13 01:42:55;;;;;;;;;;;4.10;99.90;4.70;100699.00;;;;338629;28;82666;-91
2021/12/13 01:43:16;;;;;;;;;;;4.10;99.90;4.80;100706.00;;;;339973;28;87733;-91
2021/12/13 01:43:29;;;;;;;;;;;4.20;99.90;4.90;100702.00;;;;337634;28;83254;-91
2021/12/13 01:43:44;;;;;;;;;;;4.10;99.90;4.90;100701.00;;;;339929;28;86835;-91
2021/12/13 01:44:00;;;;;;;;;;;4.10;99.90;4.80;100700.00;;;;339071;28;83362;-92
2021/12/13 01:44:16;;;;;;;;;;;4.20;99.90;4.90;100689.00;;;;340203;28;85305;-91
2021/12/13 01:44:32;;;;;;;;;;;4.20;99.90;4.90;100700.00;;;;338781;28;82564;-92
2021/12/13 01:44:47;;;;;;;;;;;4.20;99.90;4.90;100694.00;;;;338788;28;86262;-91
2021/12/13 01:45:02;;;;;;;;;;;4.20;99.90;5.00;100704.00;;;;341705;28;82246;-91
2021/12/13 01:45:14;;;;;;;;;;;4.20;99.90;4.90;100701.00;;;;341535;28;85420;-91
2021/12/13 01:45:26;;;;;;;;;;;4.20;99.90;5.00;100691.00;;;;337776;28;83510;-91
2021/12/13 01:45:39;;;;;;;;;;;4.20;99.90;4.90;100699.00;;;;338890;28;84986;-91